Time;durP1;ratioP1;P1;durP2;ratioP2;P2;SDS_P1;SDS_P2;PMS_P1;PMS_P2;Temp;Humidity;BMP_temperature;BMP_pressure;BME280_temperature;BME280_humidity;BME280_pressure;Samples;Min_cycle;Max_cycle;Signal;HPM_P1;HPM_P2
2023/09/18 00:12:38;;;;;;;23.73;12.20;;;;;;;22.15;83.37;101101.09;31483327;28;20055;-77
2023/09/18 00:27:40;;;;;;;16.93;9.97;;;;;;;22.08;81.81;101103.00;31457373;28;20088;-75
2023/09/18 00:42:42;;;;;;;18.35;8.80;;;;;;;22.06;80.41;101102.69;31467247;28;20040;-77
2023/09/18 00:57:45;;;;;;;17.98;8.50;;;;;;;21.84;81.12;101102.25;31463297;28;20053;-76
2023/09/18 01:12:55;;;;;;;18.58;8.75;;;;;;;21.59;83.82;101086.13;31471084;28;20037;-77
2023/09/18 01:27:57;;;;;;;20.50;10.65;;;;;;;21.32;85.62;101087.06;31477005;28;20044;-77
2023/09/18 01:42:59;;;;;;;21.80;10.98;;;;;;;21.23;86.21;101090.66;31481004;28;20075;-76
2023/09/18 01:58:02;;;;;;;29.10;11.48;;;;;;;21.22;90.54;101078.09;31491279;28;20553;-77
2023/09/18 02:13:05;;;;;;;21.97;11.37;;;;;;;21.23;92.06;101085.13;31486809;28;20143;-76
2023/09/18 02:28:07;;;;;;;20.08;10.98;;;;;;;21.24;94.89;101078.38;31487375;28;20143;-76
2023/09/18 02:43:09;;;;;;;24.67;10.82;;;;;;;21.20;95.93;101083.31;31483720;28;20498;-77
2023/09/18 02:58:11;;;;;;;18.67;10.25;;;;;;;20.93;100.00;101083.41;31498069;28;20044;-75
2023/09/18 03:13:15;;;;;;;21.38;10.65;;;;;;;20.82;100.00;101083.88;31472575;28;20140;-78
2023/09/18 03:28:17;;;;;;;16.30;9.87;;;;;;;20.62;100.00;101087.16;31475364;28;20174;-77
2023/09/18 03:43:19;;;;;;;16.30;10.77;;;;;;;20.81;100.00;101098.16;31465733;28;20048;-77
2023/09/18 03:58:21;;;;;;;17.85;10.18;;;;;;;21.04;100.00;101094.69;31470339;28;20078;-77
2023/09/18 04:13:24;;;;;;;19.77;10.07;;;;;;;21.41;100.00;101087.78;31469972;28;20052;-79
2023/09/18 04:28:26;;;;;;;17.77;9.65;;;;;;;21.38;100.00;101102.53;31474754;28;20060;-78
2023/09/18 04:43:31;;;;;;;18.02;10.70;;;;;;;21.97;100.00;101108.25;31472260;28;20040;-79
2023/09/18 04:58:34;;;;;;;64.10;15.32;;;;;;;22.84;100.00;101078.44;31470884;28;20095;-78
2023/09/18 05:13:36;;;;;;;20.13;10.73;;;;;;;23.38;100.00;101085.28;31464458;28;20048;-79
2023/09/18 05:28:38;;;;;;;20.65;9.63;;;;;;;24.47;99.78;101113.28;31464588;28;20087;-77
2023/09/18 05:43:40;;;;;;;15.30;9.07;;;;;;;25.25;93.09;101124.28;31478519;28;20052;-74
2023/09/18 05:58:42;;;;;;;13.23;8.05;;;;;;;26.86;75.50;101136.44;31464152;28;20471;-77
2023/09/18 06:13:44;;;;;;;12.27;7.50;;;;;;;27.41;68.58;101141.19;31470931;28;20113;-78
2023/09/18 06:28:46;;;;;;;16.37;8.10;;;;;;;28.27;63.41;101157.88;31480286;28;20437;-75
2023/09/18 06:43:48;;;;;;;15.03;6.70;;;;;;;29.08;58.80;101161.84;31476527;28;20408;-75
2023/09/18 06:58:54;;;;;;;29.00;13.07;;;;;;;30.58;52.25;101166.97;31470028;28;20053;-75
2023/09/18 07:13:56;;;;;;;24.77;11.73;;;;;;;30.93;51.56;101165.91;31478858;28;20079;-76
2023/09/18 07:28:59;;;;;;;31.75;12.07;;;;;;;32.13;46.77;101157.69;31494173;28;20162;-77
2023/09/18 07:44:03;;;;;;;23.67;8.85;;;;;;;33.08;42.38;101151.88;31457457;28;20037;-75
2023/09/18 07:59:05;;;;;;;12.43;5.60;;;;;;;33.54;38.94;101150.88;31455976;28;20076;-74
2023/09/18 08:14:08;;;;;;;7.85;5.22;;;;;;;34.18;37.22;101149.31;31453222;28;20138;-75
2023/09/18 08:29:10;;;;;;;8.70;4.20;;;;;;;34.67;35.82;101134.94;31464195;28;20063;-80
2023/09/18 08:44:13;;;;;;;8.60;3.80;;;;;;;34.87;34.38;101125.56;31452433;28;20110;-72
2023/09/18 08:59:15;;;;;;;6.72;4.03;;;;;;;35.36;32.97;101118.72;31467949;28;20416;-79
2023/09/18 09:14:21;;;;;;;8.85;4.28;;;;;;;35.81;32.47;101105.75;31475071;28;20048;-73
2023/09/18 09:29:23;;;;;;;4.70;3.25;;;;;;;36.67;31.50;101108.94;31488007;28;20060;-82
2023/09/18 09:44:26;;;;;;;4.30;2.80;;;;;;;36.87;30.13;101098.59;31487269;28;20045;-74
2023/09/18 09:59:29;;;;;;;9.05;6.93;;;;;;;36.06;29.25;101097.34;31484135;28;20098;-74
2023/09/18 10:14:36;;;;;;;13.60;4.57;;;;;;;36.48;29.20;101080.47;31492082;28;20468;-77
2023/09/18 10:29:57;;;;;;;5.10;3.25;;;;;;;35.48;29.69;101068.97;31482519;28;20099;-75
2023/09/18 10:45:00;;;;;;;4.75;3.13;;;;;;;35.95;27.85;101064.63;31475523;28;20052;-75
2023/09/18 11:00:13;;;;;;;4.65;2.70;;;;;;;35.59;28.52;101044.47;31480995;28;20049;-74
2023/09/18 11:15:36;;;;;;;5.40;3.70;;;;;;;36.67;28.77;101024.09;31479638;28;20124;-77
2023/09/18 11:30:51;;;;;;;6.45;4.45;;;;;;;37.91;27.13;101011.47;31486773;28;20500;-77
2023/09/18 11:45:55;;;;;;;4.40;2.92;;;;;;;38.09;28.18;101012.88;31481439;28;20076;-75
2023/09/18 12:01:12;;;;;;;6.82;4.40;;;;;;;35.11;29.56;101007.78;31480037;28;20066;-76
2023/09/18 12:16:18;;;;;;;7.10;4.57;;;;;;;32.87;31.65;100991.66;31479866;28;20044;-79
2023/09/18 12:31:20;;;;;;;8.35;4.68;;;;;;;32.02;32.32;100997.91;31466033;28;20186;-80
2023/09/18 12:46:23;;;;;;;10.85;5.07;;;;;;;31.54;32.60;100985.97;31463536;28;20063;-77
2023/09/18 13:01:25;;;;;;;11.15;4.53;;;;;;;30.84;33.43;100977.22;31466237;28;20083;-76
2023/09/18 13:16:27;;;;;;;7.53;4.10;;;;;;;30.67;33.63;100974.00;31467587;28;20122;-77
2023/09/18 13:31:32;;;;;;;10.63;6.32;;;;;;;30.37;33.69;100965.84;31481562;28;20083;-81
2023/09/18 13:46:37;;;;;;;8.93;4.47;;;;;;;30.12;33.58;100956.84;31481912;28;20051;-77
2023/09/18 14:01:39;;;;;;;9.98;5.20;;;;;;;29.96;34.64;100949.47;31480455;28;20040;-74
2023/09/18 14:16:40;;;;;;;;;;;;;;;29.91;35.08;100950.31;31486572;28;20084;-77
2023/09/18 14:31:43;;;;;;;5.80;3.40;;;;;;;29.65;35.83;100944.59;31470495;28;20444;-72
2023/09/18 14:46:45;;;;;;;9.95;4.72;;;;;;;29.45;36.26;100943.88;31467984;28;20044;-77
2023/09/18 15:01:48;;;;;;;9.77;4.20;;;;;;;29.13;37.61;100940.22;31472375;28;20051;-72
2023/09/18 15:16:51;;;;;;;5.70;4.00;;;;;;;28.91;38.94;100940.50;31476900;28;20135;-73
2023/09/18 15:31:53;;;;;;;7.03;3.95;;;;;;;28.61;40.67;100932.16;31466585;28;20133;-73
2023/09/18 15:46:55;;;;;;;5.07;3.60;;;;;;;28.26;41.48;100944.22;31464171;28;20052;-74
2023/09/18 16:01:57;;;;;;;5.10;3.80;;;;;;;28.12;41.91;100938.44;31477223;28;20110;-74
2023/09/18 16:17:04;;;;;;;34.40;21.63;;;;;;;27.88;42.80;100943.22;31466462;28;20048;-76
2023/09/18 16:32:06;;;;;;;8.60;5.82;;;;;;;27.72;43.79;100942.06;31454035;28;20139;-74
2023/09/18 16:47:09;;;;;;;9.57;6.00;;;;;;;27.60;43.18;100946.22;31465879;28;20076;-73
2023/09/18 17:02:13;;;;;;;8.85;5.28;;;;;;;27.51;43.15;100961.94;31464054;28;20082;-74
2023/09/18 17:17:16;;;;;;;6.82;4.28;;;;;;;27.25;42.87;100967.16;31458123;28;20052;-73
2023/09/18 17:32:18;;;;;;;9.53;5.50;;;;;;;27.03;43.04;100962.44;31462127;28;20063;-77
2023/09/18 17:47:20;;;;;;;7.90;5.00;;;;;;;26.98;43.09;100970.78;31467768;28;20479;-73
2023/09/18 18:02:23;;;;;;;5.60;3.83;;;;;;;26.94;42.12;100961.91;31468887;28;20114;-76
2023/09/18 18:17:28;;;;;;;19.10;11.90;;;;;;;26.81;42.75;100956.91;31479199;28;20045;-75
2023/09/18 18:32:32;;;;;;;10.77;7.05;;;;;;;26.75;42.81;100947.78;31481238;28;20409;-77
2023/09/18 18:47:35;;;;;;;8.40;4.67;;;;;;;26.54;43.30;100938.97;31478656;28;20048;-76
2023/09/18 19:02:39;;;;;;;14.97;9.33;;;;;;;26.32;44.01;100944.59;31496026;28;20052;-77
2023/09/18 19:17:43;;;;;;;19.88;10.48;;;;;;;26.03;45.28;100943.03;31486131;28;20152;-77
2023/09/18 19:32:46;;;;;;;15.75;8.13;;;;;;;25.25;48.25;100943.66;31459342;28;20125;-75
2023/09/18 19:47:48;;;;;;;19.03;8.53;;;;;;;24.98;48.90;100944.31;31475474;28;23403;-76
2023/09/18 20:02:51;;;;;;;10.43;6.00;;;;;;;24.74;49.68;100953.75;31467760;28;20052;-75
2023/09/18 20:17:53;;;;;;;14.53;7.30;;;;;;;24.21;51.99;100953.59;31469281;28;20440;-75
2023/09/18 20:32:56;;;;;;;13.27;7.55;;;;;;;23.85;53.44;100941.97;31471319;28;20057;-73
2023/09/18 20:47:58;;;;;;;20.33;12.20;;;;;;;23.76;53.57;100944.88;31467618;28;20036;-74
2023/09/18 21:03:02;;;;;;;16.67;7.77;;;;;;;23.80;55.01;100939.88;31475521;28;20066;-73
2023/09/18 21:18:04;;;;;;;12.45;7.00;;;;;;;23.67;57.05;100947.81;31464695;28;20469;-82
2023/09/18 21:33:06;;;;;;;16.70;8.52;;;;;;;23.57;59.20;100933.38;31460474;28;20090;-80
2023/09/18 21:48:10;;;;;;;11.52;6.18;;;;;;;23.94;59.05;100943.78;31480583;28;20076;-83
2023/09/18 22:03:12;;;;;;;15.43;8.27;;;;;;;23.77;62.34;100946.41;31490903;28;20097;-82
2023/09/18 22:18:14;;;;;;;14.70;8.82;;;;;;;22.86;65.65;100943.06;31485320;28;20448;-79
2023/09/18 22:33:16;;;;;;;25.60;12.80;;;;;;;22.74;65.92;100942.13;31494082;28;20091;-81
2023/09/18 22:48:56;;;;;;;18.73;9.30;;;;;;;23.01;66.08;100943.00;31488321;28;20070;-82
2023/09/18 23:03:59;;;;;;;15.15;8.55;;;;;;;23.14;62.74;100946.22;31487016;28;20075;-79
2023/09/18 23:19:04;;;;;;;16.73;9.32;;;;;;;23.10;63.55;100940.09;31489534;28;20051;-80
2023/09/18 23:34:07;;;;;;;19.00;9.43;;;;;;;22.65;65.08;100933.97;31490215;28;20128;-80
2023/09/18 23:49:09;;;;;;;14.45;9.40;;;;;;;21.85;69.51;100937.94;31511784;28;20106;-81
